createdAt,value
2023-01-13T00:06:21.647Z,8.57
2023-01-13T00:16:24.088Z,9.73
2023-01-13T00:26:30.660Z,10.25
2023-01-13T00:36:33.721Z,7.13
2023-01-13T00:46:36.355Z,7.23
2023-01-13T00:56:40.813Z,7.88
2023-01-13T01:06:43.766Z,7.50
2023-01-13T01:16:46.167Z,6.83
2023-01-13T01:26:48.514Z,7.33
2023-01-13T01:36:51.131Z,7.20
2023-01-13T01:46:55.286Z,7.13
2023-01-13T01:56:58.154Z,7.50
2023-01-13T02:07:04.360Z,7.25
2023-01-13T02:17:21.674Z,7.43
2023-01-13T02:27:46.741Z,6.67
2023-01-13T02:37:50.844Z,6.43
2023-01-13T02:47:56.169Z,6.80
2023-01-13T02:58:01.859Z,7.03
2023-01-13T03:08:04.949Z,6.17
2023-01-13T03:18:17.234Z,5.50
2023-01-13T03:28:28.270Z,4.40
2023-01-13T03:38:38.611Z,5.33
2023-01-13T03:48:45.827Z,5.75
2023-01-13T03:58:52.970Z,5.30
2023-01-13T04:09:11.894Z,7.57
2023-01-13T04:19:14.549Z,6.68
2023-01-13T04:29:17.355Z,8.80
2023-01-13T04:39:19.772Z,6.10
2023-01-13T04:49:22.193Z,7.17
2023-01-13T04:59:25.559Z,7.68
2023-01-13T05:09:28.179Z,8.73
2023-01-13T05:19:33.830Z,8.67
2023-01-13T05:29:36.247Z,9.45
2023-01-13T05:39:58.683Z,6.80
2023-01-13T05:50:01.312Z,4.73
2023-01-13T06:00:05.331Z,5.78
2023-01-13T06:10:14.608Z,6.22
2023-01-13T06:20:17.851Z,5.10
2023-01-13T06:30:23.201Z,4.50
2023-01-13T06:41:46.765Z,6.15
2023-01-13T06:51:59.967Z,4.50
2023-01-13T07:02:10.783Z,7.40
2023-01-13T07:12:17.104Z,6.22
2023-01-13T07:22:19.855Z,7.33
2023-01-13T07:32:22.948Z,16.37
2023-01-13T07:42:45.122Z,9.55
2023-01-13T07:52:51.427Z,13.67
2023-01-13T08:02:55.008Z,9.13
2023-01-13T08:13:21.158Z,6.87
2023-01-13T08:23:23.796Z,8.98
2023-01-13T08:33:26.423Z,11.00
2023-01-13T08:43:29.075Z,6.90
2023-01-13T08:53:32.131Z,6.38
2023-01-13T09:03:34.740Z,6.90
2023-01-13T09:13:37.188Z,7.63
2023-01-13T09:23:39.762Z,7.25
2023-01-13T09:34:00.940Z,6.07
2023-01-13T09:44:07.389Z,6.20
2023-01-13T09:54:25.969Z,5.70
2023-01-13T10:04:28.603Z,6.40
2023-01-13T10:27:20.251Z,6.70
2023-01-13T10:37:28.448Z,6.78
2023-01-13T10:47:35.796Z,4.73
2023-01-13T10:57:39.238Z,6.57
2023-01-13T11:07:50.483Z,5.77
2023-01-13T11:18:05.123Z,7.90
2023-01-13T11:28:36.640Z,8.63
2023-01-13T11:38:52.768Z,5.77
2023-01-13T11:48:56.639Z,6.63
2023-01-13T11:59:44.335Z,10.00
2023-01-13T12:10:14.770Z,7.10
2023-01-13T12:20:29.612Z,8.50
2023-01-13T12:30:55.199Z,7.97
2023-01-13T12:41:19.169Z,9.20
2023-01-13T12:51:22.833Z,8.25
2023-01-13T13:01:36.733Z,10.77
2023-01-13T13:12:03.078Z,8.30
2023-01-13T13:22:12.027Z,8.80
2023-01-13T13:32:33.449Z,5.60
2023-01-13T13:43:13.445Z,6.30
2023-01-13T13:53:19.776Z,4.67
2023-01-13T14:03:34.414Z,6.00
2023-01-13T14:13:36.975Z,7.63
2023-01-13T14:23:39.492Z,5.47
2023-01-13T14:33:48.131Z,5.43
2023-01-13T14:43:54.437Z,4.93
2023-01-13T14:53:58.539Z,6.40
2023-01-13T15:04:38.249Z,5.50
2023-01-13T15:14:40.810Z,7.35
2023-01-13T15:24:43.250Z,6.37
2023-01-13T15:34:47.857Z,8.07
2023-01-13T15:45:09.300Z,7.43
2023-01-13T15:55:11.876Z,5.70
2023-01-13T16:05:14.541Z,12.00
2023-01-13T16:15:18.357Z,19.83
2023-01-13T16:25:25.289Z,18.60
2023-01-13T16:35:29.089Z,7.73
2023-01-13T16:45:32.824Z,21.03
2023-01-13T16:55:36.888Z,8.23
2023-01-13T17:05:44.178Z,6.80
2023-01-13T17:15:46.729Z,7.60
2023-01-13T17:25:49.342Z,8.60
2023-01-13T17:35:51.909Z,8.67
2023-01-13T17:45:54.550Z,7.47
2023-01-13T17:55:57.736Z,6.75
2023-01-13T18:06:08.600Z,7.43
2023-01-13T18:16:13.923Z,9.13
2023-01-13T18:26:36.991Z,10.03
2023-01-13T18:36:39.616Z,13.15
2023-01-13T18:46:42.577Z,13.83
2023-01-13T18:56:45.491Z,13.43
2023-01-13T19:06:51.589Z,30.58
2023-01-13T19:16:54.395Z,34.30
2023-01-13T19:26:57.024Z,18.17
2023-01-13T19:36:59.619Z,26.67
2023-01-13T19:47:03.874Z,11.13
2023-01-13T19:57:07.066Z,9.40
2023-01-13T20:07:13.538Z,9.03
2023-01-13T20:17:18.584Z,20.83
2023-01-13T20:27:23.867Z,15.77
2023-01-13T20:37:27.005Z,15.00
2023-01-13T20:47:30.747Z,10.77
2023-01-13T20:57:33.374Z,12.37
2023-01-13T21:07:37.950Z,41.83
2023-01-13T21:18:00.708Z,26.95
2023-01-13T21:28:06.758Z,24.00
2023-01-13T21:38:11.449Z,17.53
2023-01-13T21:48:14.268Z,16.37
2023-01-13T21:58:17.147Z,13.73
2023-01-13T22:08:19.761Z,13.50
2023-01-13T22:18:22.300Z,11.90
2023-01-13T22:28:34.052Z,15.18
2023-01-13T22:38:36.952Z,16.50
2023-01-13T22:48:40.579Z,19.40
2023-01-13T22:58:43.771Z,16.77
2023-01-13T23:08:47.058Z,39.20
2023-01-13T23:18:49.664Z,25.00
2023-01-13T23:28:52.223Z,15.37
2023-01-13T23:38:55.518Z,15.93
2023-01-13T23:48:58.327Z,20.97
2023-01-13T23:59:00.828Z,13.20
